Time;durP1;ratioP1;P1;durP2;ratioP2;P2;SDS_P1;SDS_P2;PMS_P1;PMS_P2;Temp;Humidity;BMP_temperature;BMP_pressure;BME280_temperature;BME280_humidity;BME280_pressure;Samples;Min_cycle;Max_cycle;Signal;HPM_P1;HPM_P2
2023/08/16 00:00:02;;;;;;;6.90;1.73;;;17.50;99.90;;;;;;5068879;28;20219;-80
2023/08/16 00:02:31;;;;;;;2.73;1.77;;;17.40;99.90;;;;;;5052049;28;20278;-81
2023/08/16 00:04:58;;;;;;;2.67;1.30;;;17.40;99.90;;;;;;5052822;28;20879;-81
2023/08/16 00:07:25;;;;;;;3.73;1.50;;;17.30;99.90;;;;;;5054253;28;20219;-83
2023/08/16 00:09:52;;;;;;;3.10;1.30;;;17.30;99.90;;;;;;5048433;28;20771;-83
2023/08/16 00:12:20;;;;;;;1.77;1.13;;;17.20;99.90;;;;;;5049807;28;20221;-81
2023/08/16 00:14:47;;;;;;;4.63;1.53;;;17.20;99.90;;;;;;5050174;28;20839;-81
2023/08/16 00:17:14;;;;;;;7.37;1.70;;;17.10;99.90;;;;;;5051371;28;20236;-81
2023/08/16 00:19:42;;;;;;;4.53;1.50;;;17.10;99.90;;;;;;5051154;28;20243;-81
2023/08/16 00:22:09;;;;;;;4.90;2.00;;;17.00;99.90;;;;;;5069917;28;20239;-82
2023/08/16 00:24:35;;;;;;;3.63;1.50;;;17.00;99.90;;;;;;5050638;28;20225;-81
2023/08/16 00:27:03;;;;;;;2.93;1.40;;;16.90;99.90;;;;;;5049858;28;20233;-82
2023/08/16 00:29:31;;;;;;;3.63;1.83;;;16.90;99.90;;;;;;5069371;28;20219;-81
2023/08/16 00:32:00;;;;;;;1.80;1.50;;;16.80;99.90;;;;;;5053268;28;20315;-82
2023/08/16 00:34:27;;;;;;;3.40;1.60;;;16.80;99.90;;;;;;5051464;28;20227;-83
2023/08/16 00:36:54;;;;;;;3.60;1.80;;;16.70;99.90;;;;;;5049503;28;20231;-82
2023/08/16 00:39:21;;;;;;;4.80;2.03;;;16.70;99.90;;;;;;5068116;28;20216;-82
2023/08/16 00:41:48;;;;;;;3.90;1.70;;;16.60;99.90;;;;;;5058243;28;20281;-84
2023/08/16 00:44:14;;;;;;;3.67;1.87;;;16.60;99.90;;;;;;5045509;28;20318;-82
2023/08/16 00:46:43;;;;;;;4.80;2.10;;;16.50;99.90;;;;;;5048261;28;20771;-83
2023/08/16 00:49:10;;;;;;;4.07;1.93;;;16.50;99.90;;;;;;5044007;28;20224;-82
2023/08/16 00:51:38;;;;;;;3.33;1.67;;;16.40;99.90;;;;;;5046263;28;20277;-81
2023/08/16 00:54:06;;;;;;;3.33;1.73;;;16.40;99.90;;;;;;5055726;28;20223;-82
2023/08/16 00:56:35;;;;;;;3.73;1.93;;;16.30;99.90;;;;;;5048209;28;20935;-82
2023/08/16 00:59:04;;;;;;;4.10;1.90;;;16.20;99.90;;;;;;5050369;28;20227;-82
2023/08/16 01:01:31;;;;;;;4.90;1.77;;;16.20;99.90;;;;;;5053607;28;20228;-81
2023/08/16 01:04:00;;;;;;;3.03;1.60;;;16.20;99.90;;;;;;5048465;28;20224;-81
2023/08/16 01:06:27;;;;;;;5.27;2.07;;;16.10;99.90;;;;;;5056172;28;20259;-83
2023/08/16 01:08:54;;;;;;;3.83;2.07;;;16.00;99.90;;;;;;5050463;28;20227;-81
2023/08/16 01:11:29;;;;;;;4.53;1.90;;;16.00;99.90;;;;;;5056287;28;20219;-81
2023/08/16 01:14:02;;;;;;;5.63;2.10;;;15.90;99.90;;;;;;5059391;28;20736;-81
2023/08/16 01:16:30;;;;;;;4.33;2.30;;;15.90;99.90;;;;;;5060323;28;20228;-84
2023/08/16 01:18:58;;;;;;;4.00;1.90;;;15.90;99.90;;;;;;5055742;28;20258;-81
2023/08/16 01:21:27;;;;;;;4.93;2.00;;;15.80;99.90;;;;;;5056741;28;20389;-82
2023/08/16 01:24:04;;;;;;;4.00;1.97;;;15.80;99.90;;;;;;5054576;28;20901;-81
2023/08/16 01:26:34;;;;;;;3.53;1.70;;;15.70;99.90;;;;;;5054464;28;20295;-81
2023/08/16 01:29:02;;;;;;;2.67;1.47;;;15.70;99.90;;;;;;5057419;28;20223;-81
2023/08/16 01:31:29;;;;;;;3.50;1.60;;;15.70;99.90;;;;;;5057628;28;20231;-81
2023/08/16 01:33:57;;;;;;;4.63;1.90;;;15.60;99.90;;;;;;5057513;28;20219;-81
2023/08/16 01:36:26;;;;;;;4.07;1.60;;;15.60;99.90;;;;;;5049008;28;20228;-81
2023/08/16 01:38:53;;;;;;;5.67;1.80;;;15.50;99.90;;;;;;5053315;28;20224;-81
2023/08/16 01:41:25;;;;;;;3.60;1.93;;;15.50;99.90;;;;;;5054426;28;20927;-80
2023/08/16 01:43:56;;;;;;;4.90;2.20;;;15.50;99.90;;;;;;5055341;28;20224;-82
2023/08/16 01:46:24;;;;;;;4.93;2.03;;;15.40;99.90;;;;;;5057576;28;20235;-81
2023/08/16 01:48:53;;;;;;;5.87;1.80;;;15.40;99.90;;;;;;5056176;28;20227;-80
2023/08/16 01:51:20;;;;;;;5.17;1.80;;;15.40;99.90;;;;;;5059065;28;20906;-80
2023/08/16 01:53:52;;;;;;;4.33;1.97;;;15.40;99.90;;;;;;5056669;28;20227;-81
2023/08/16 01:56:18;;;;;;;4.87;2.13;;;15.40;99.90;;;;;;5073444;28;20281;-80
2023/08/16 01:58:45;;;;;;;4.70;1.70;;;15.30;99.90;;;;;;5052345;28;20277;-80
2023/08/16 02:01:14;;;;;;;6.03;2.47;;;15.30;99.90;;;;;;5049082;28;20251;-80
2023/08/16 02:03:41;;;;;;;3.23;1.47;;;15.20;99.90;;;;;;5050317;28;20265;-80
2023/08/16 02:06:09;;;;;;;2.83;1.63;;;15.30;99.90;;;;;;5057864;28;20231;-80
2023/08/16 02:08:35;;;;;;;4.03;1.87;;;15.20;99.90;;;;;;5052745;28;20756;-81
2023/08/16 02:11:02;;;;;;;4.10;1.60;;;15.20;99.90;;;;;;5053044;28;20234;-80
2023/08/16 02:13:29;;;;;;;7.63;2.40;;;15.10;99.90;;;;;;5050242;28;20223;-80
2023/08/16 02:16:00;;;;;;;4.00;1.57;;;15.10;99.90;;;;;;5051643;28;20238;-80
2023/08/16 02:18:29;;;;;;;4.23;1.90;;;15.10;99.90;;;;;;5045938;28;20227;-81
2023/08/16 02:20:56;;;;;;;5.40;2.20;;;15.10;99.90;;;;;;5048848;28;20222;-82
2023/08/16 02:23:23;;;;;;;5.67;2.03;;;15.00;99.90;;;;;;5063292;28;20259;-81
2023/08/16 02:25:50;;;;;;;5.33;1.90;;;15.00;99.90;;;;;;5054801;28;20230;-80
2023/08/16 02:28:17;;;;;;;6.67;2.30;;;15.00;99.90;;;;;;5061306;28;20314;-81
2023/08/16 02:30:44;;;;;;;4.07;2.23;;;15.00;99.90;;;;;;5063324;28;20224;-83
2023/08/16 02:33:11;;;;;;;4.10;2.03;;;15.00;99.90;;;;;;5050319;28;20222;-82
2023/08/16 02:35:39;;;;;;;4.13;2.40;;;14.90;99.90;;;;;;5056837;28;20264;-81
2023/08/16 02:38:06;;;;;;;3.47;1.77;;;14.90;99.90;;;;;;5055153;28;20303;-81
2023/08/16 02:40:33;;;;;;;4.00;2.27;;;14.90;99.90;;;;;;5067525;28;20283;-82
2023/08/16 02:43:00;;;;;;;3.50;2.50;;;14.90;99.90;;;;;;5050788;28;20226;-82
2023/08/16 02:45:27;;;;;;;4.90;2.97;;;14.90;99.90;;;;;;5053479;28;20227;-81
2023/08/16 02:47:54;;;;;;;4.93;2.73;;;14.80;99.90;;;;;;5049784;28;21005;-81
2023/08/16 02:50:21;;;;;;;5.07;2.30;;;14.80;99.90;;;;;;5048961;28;20724;-80
2023/08/16 02:52:49;;;;;;;3.70;2.10;;;14.80;99.90;;;;;;5056257;28;20254;-80
2023/08/16 02:55:16;;;;;;;3.50;2.27;;;14.70;99.90;;;;;;5052040;28;20230;-81
2023/08/16 02:57:43;;;;;;;5.87;1.90;;;14.70;99.90;;;;;;5057421;28;20232;-80
2023/08/16 03:00:11;;;;;;;5.77;1.90;;;14.70;99.90;;;;;;5059203;28;20248;-82
2023/08/16 03:02:38;;;;;;;3.00;1.80;;;14.70;99.90;;;;;;5056370;28;20223;-81
2023/08/16 03:05:06;;;;;;;4.37;1.90;;;14.60;99.90;;;;;;5054635;28;20219;-81
2023/08/16 03:07:33;;;;;;;2.73;2.20;;;14.60;99.90;;;;;;5049218;28;20230;-81
2023/08/16 03:10:03;;;;;;;2.80;1.70;;;14.60;99.90;;;;;;5056357;28;20212;-80
2023/08/16 03:12:29;;;;;;;4.63;2.20;;;14.60;99.90;;;;;;5049674;28;20215;-79
2023/08/16 03:14:56;;;;;;;5.70;2.60;;;14.50;99.90;;;;;;5046882;28;20337;-79
2023/08/16 03:17:23;;;;;;;8.03;2.70;;;14.50;99.90;;;;;;5047102;28;20271;-82
2023/08/16 03:19:51;;;;;;;6.20;3.10;;;14.40;99.90;;;;;;5052588;28;20225;-80
2023/08/16 03:22:18;;;;;;;5.67;3.13;;;14.40;99.90;;;;;;5051163;28;20222;-80
2023/08/16 03:24:46;;;;;;;5.47;2.73;;;14.40;99.90;;;;;;5054614;28;20697;-80
2023/08/16 03:27:15;;;;;;;4.60;2.97;;;14.40;99.90;;;;;;5050620;28;20258;-80
2023/08/16 03:29:42;;;;;;;8.17;3.80;;;14.40;99.90;;;;;;5041981;28;20228;-80
2023/08/16 03:32:09;;;;;;;7.00;3.00;;;14.30;99.90;;;;;;5064106;28;20231;-79
2023/08/16 03:34:36;;;;;;;6.37;3.00;;;14.30;99.90;;;;;;5049757;28;20220;-79
2023/08/16 03:37:02;;;;;;;10.80;4.00;;;14.30;99.90;;;;;;5044606;28;20250;-79
2023/08/16 03:39:29;;;;;;;5.40;3.63;;;14.30;99.90;;;;;;5048659;28;20697;-82
2023/08/16 03:41:56;;;;;;;7.10;3.60;;;14.30;99.90;;;;;;5051437;28;20218;-82
2023/08/16 03:44:24;;;;;;;5.87;3.23;;;14.30;99.90;;;;;;5055499;28;20724;-82
2023/08/16 03:46:53;;;;;;;7.13;3.70;;;14.30;99.90;;;;;;5055039;28;20231;-82
2023/08/16 03:49:20;;;;;;;5.87;3.90;;;14.30;99.90;;;;;;5053419;28;20934;-82
2023/08/16 03:51:47;;;;;;;10.93;3.87;;;14.20;99.90;;;;;;5051530;28;20220;-81
2023/08/16 03:54:14;;;;;;;5.03;2.77;;;14.20;99.90;;;;;;5056115;28;20272;-81
2023/08/16 03:56:41;;;;;;;6.33;3.60;;;14.30;99.90;;;;;;5046309;28;20814;-80
2023/08/16 03:59:08;;;;;;;8.33;3.60;;;14.20;99.90;;;;;;5050511;28;20712;-81
2023/08/16 04:01:36;;;;;;;7.10;3.83;;;14.20;99.90;;;;;;5058488;28;20594;-79
2023/08/16 04:04:03;;;;;;;11.63;3.77;;;14.20;99.90;;;;;;5044887;28;20245;-80
2023/08/16 04:06:30;;;;;;;5.73;4.00;;;14.20;99.90;;;;;;5049510;28;20298;-83
2023/08/16 04:08:56;;;;;;;4.30;2.80;;;14.10;99.90;;;;;;5050068;28;20255;-83
2023/08/16 04:11:23;;;;;;;5.70;4.03;;;14.10;99.90;;;;;;5046221;28;20234;-82
2023/08/16 04:13:50;;;;;;;7.50;4.00;;;14.10;99.90;;;;;;5056075;28;20678;-83
2023/08/16 04:16:17;;;;;;;4.77;3.60;;;14.10;99.90;;;;;;5045996;28;20833;-81
2023/08/16 04:18:45;;;;;;;7.60;3.67;;;14.00;99.90;;;;;;5047360;28;20227;-82
2023/08/16 04:21:12;;;;;;;7.37;3.97;;;14.00;99.90;;;;;;5051312;28;20743;-78
2023/08/16 04:23:39;;;;;;;8.43;3.97;;;14.00;99.90;;;;;;5046291;28;20298;-79
2023/08/16 04:26:06;;;;;;;5.60;3.97;;;14.00;99.90;;;;;;5042754;28;20300;-79
2023/08/16 04:28:34;;;;;;;9.37;4.33;;;14.00;99.90;;;;;;5042878;28;20219;-80
2023/08/16 04:31:01;;;;;;;5.60;3.90;;;14.00;99.90;;;;;;5042914;28;20270;-79
2023/08/16 04:33:28;;;;;;;6.20;4.13;;;14.00;99.90;;;;;;5044094;28;20234;-79
2023/08/16 04:35:57;;;;;;;10.47;4.90;;;14.00;99.90;;;;;;5050122;28;20229;-80
2023/08/16 04:38:23;;;;;;;7.60;4.20;;;14.00;99.90;;;;;;5042884;28;20752;-81
2023/08/16 04:40:51;;;;;;;11.17;5.70;;;14.00;99.90;;;;;;5045542;28;20330;-81
2023/08/16 04:43:18;;;;;;;11.83;5.23;;;14.00;99.90;;;;;;5046225;28;20368;-82
2023/08/16 04:45:45;;;;;;;11.40;5.73;;;14.00;99.90;;;;;;5049087;28;20276;-80
2023/08/16 04:48:14;;;;;;;9.07;5.07;;;14.00;99.90;;;;;;5045778;28;20225;-80
2023/08/16 04:50:41;;;;;;;8.10;5.27;;;14.00;99.90;;;;;;5054723;28;20274;-81
2023/08/16 04:53:10;;;;;;;13.90;6.50;;;14.00;99.90;;;;;;5048313;28;20235;-81
2023/08/16 04:55:37;;;;;;;7.63;4.90;;;14.00;99.90;;;;;;5050624;28;20227;-83
2023/08/16 04:58:04;;;;;;;9.80;4.90;;;14.10;99.90;;;;;;5049103;28;20727;-81
2023/08/16 05:00:30;;;;;;;6.17;3.83;;;14.10;99.90;;;;;;5055669;28;20226;-82
2023/08/16 05:03:01;;;;;;;6.77;3.27;;;14.10;99.90;;;;;;5046317;28;20245;-81
2023/08/16 05:05:29;;;;;;;7.00;3.47;;;14.10;99.90;;;;;;5048496;28;20235;-83
2023/08/16 05:07:55;;;;;;;7.73;4.47;;;14.10;99.90;;;;;;5054456;28;20321;-83
2023/08/16 05:10:23;;;;;;;6.53;4.00;;;14.10;99.90;;;;;;5055205;28;20307;-82
2023/08/16 05:12:51;;;;;;;7.97;4.33;;;14.20;99.90;;;;;;5042552;28;20237;-82
2023/08/16 05:15:18;;;;;;;7.77;4.40;;;14.20;99.90;;;;;;5067377;28;20318;-86
2023/08/16 05:17:45;;;;;;;7.27;4.00;;;14.20;99.90;;;;;;5069765;28;20242;-82
2023/08/16 05:20:12;;;;;;;10.17;4.70;;;14.20;99.90;;;;;;5057174;28;20223;-84
2023/08/16 05:22:39;;;;;;;8.47;4.97;;;14.20;99.90;;;;;;5046847;28;20213;-82
2023/08/16 05:25:06;;;;;;;11.70;6.23;;;14.20;99.90;;;;;;5052327;28;21009;-81
2023/08/16 05:27:35;;;;;;;10.57;6.30;;;14.30;99.90;;;;;;5052310;28;20233;-82
2023/08/16 05:30:02;;;;;;;10.77;7.00;;;14.30;99.90;;;;;;5056823;28;20283;-82
2023/08/16 05:32:29;;;;;;;10.53;6.73;;;14.40;99.90;;;;;;5054673;28;20218;-83
2023/08/16 05:34:56;;;;;;;10.27;6.50;;;14.40;99.90;;;;;;5055258;28;20268;-84
2023/08/16 05:37:22;;;;;;;12.53;7.57;;;14.40;99.90;;;;;;5048774;28;20246;-83
2023/08/16 05:39:49;;;;;;;15.90;7.23;;;14.60;99.90;;;;;;5041131;28;20330;-84
2023/08/16 05:42:16;;;;;;;9.27;7.20;;;14.60;99.90;;;;;;5057032;28;20779;-83
2023/08/16 05:44:44;;;;;;;12.67;7.17;;;14.60;99.90;;;;;;5048638;28;20272;-84
2023/08/16 05:47:10;;;;;;;8.87;6.80;;;14.70;99.90;;;;;;5055503;28;20310;-82
2023/08/16 05:49:37;;;;;;;9.80;6.60;;;14.80;99.90;;;;;;5048116;28;20223;-83
2023/08/16 05:52:04;;;;;;;10.03;6.83;;;14.80;99.90;;;;;;5056718;28;20304;-81
2023/08/16 05:54:31;;;;;;;15.17;6.50;;;14.90;99.90;;;;;;5060916;28;20226;-81
2023/08/16 05:56:58;;;;;;;10.67;6.77;;;14.90;99.90;;;;;;5053433;28;20233;-82
2023/08/16 05:59:25;;;;;;;11.37;5.80;;;15.00;99.90;;;;;;5053662;28;20229;-82
2023/08/16 06:01:53;;;;;;;11.60;5.50;;;15.10;99.90;;;;;;5037568;28;20224;-82
2023/08/16 06:04:20;;;;;;;15.57;6.00;;;15.10;99.90;;;;;;5052965;28;20237;-81
2023/08/16 06:06:46;;;;;;;10.47;5.30;;;15.20;99.90;;;;;;5057954;28;20231;-83
2023/08/16 06:09:13;;;;;;;10.97;4.97;;;15.20;99.90;;;;;;5051646;28;21022;-81
2023/08/16 06:11:40;;;;;;;10.53;4.30;;;15.30;99.90;;;;;;5070023;28;20228;-81
2023/08/16 06:14:07;;;;;;;8.27;4.23;;;15.40;99.90;;;;;;5058511;28;20227;-81
2023/08/16 06:16:33;;;;;;;8.90;4.93;;;15.50;99.90;;;;;;5055276;28;20696;-81
2023/08/16 06:19:01;;;;;;;9.93;4.10;;;15.60;99.90;;;;;;5060170;28;20220;-81
2023/08/16 06:21:28;;;;;;;6.20;3.80;;;15.70;99.90;;;;;;5050399;28;20235;-81
2023/08/16 06:23:56;;;;;;;8.00;4.07;;;15.80;99.90;;;;;;5054126;28;20243;-80
2023/08/16 06:26:23;;;;;;;6.87;3.10;;;15.90;99.90;;;;;;5055018;28;20311;-80
2023/08/16 06:28:50;;;;;;;8.03;3.40;;;16.00;99.90;;;;;;5058427;28;20220;-82
2023/08/16 06:31:17;;;;;;;7.33;2.77;;;16.10;99.90;;;;;;5058320;28;20306;-84
2023/08/16 06:33:43;;;;;;;6.47;2.87;;;16.20;99.90;;;;;;5057175;28;20583;-81
2023/08/16 06:36:12;;;;;;;11.43;3.03;;;16.30;99.90;;;;;;5049064;28;20253;-81
2023/08/16 06:38:39;;;;;;;5.93;2.13;;;16.50;99.90;;;;;;5056589;28;20234;-81
2023/08/16 06:41:06;;;;;;;6.77;2.50;;;16.60;99.90;;;;;;5051480;28;20227;-82
2023/08/16 06:43:33;;;;;;;5.97;2.10;;;16.70;99.90;;;;;;5051060;28;20314;-82
2023/08/16 06:45:59;;;;;;;4.72;2.03;;;16.80;99.90;;;;;;5056118;28;20223;-81
2023/08/16 06:48:26;;;;;;;5.73;1.80;;;16.80;99.90;;;;;;5056862;28;20289;-80
2023/08/16 06:50:54;;;;;;;6.70;1.80;;;16.90;99.90;;;;;;5056665;28;20306;-81
2023/08/16 06:53:22;;;;;;;5.55;2.50;;;17.00;99.90;;;;;;5049500;28;20227;-82
2023/08/16 06:55:49;;;;;;;3.93;1.80;;;17.10;99.90;;;;;;5047065;28;20316;-81
2023/08/16 06:58:16;;;;;;;6.20;1.98;;;17.20;99.90;;;;;;5058886;28;20628;-81
2023/08/16 07:00:45;;;;;;;5.40;2.47;;;17.30;99.90;;;;;;5059086;28;20327;-80
2023/08/16 07:03:12;;;;;;;4.55;2.08;;;17.40;99.90;;;;;;5061250;28;20221;-82
2023/08/16 07:05:39;;;;;;;4.18;1.67;;;17.50;99.90;;;;;;5051162;28;20232;-80
2023/08/16 07:08:06;;;;;;;6.25;2.08;;;17.60;99.90;;;;;;5050327;28;20216;-81
2023/08/16 07:10:34;;;;;;;6.13;1.83;;;17.70;99.90;;;;;;5053264;28;20859;-81
2023/08/16 07:13:01;;;;;;;5.10;1.70;;;17.80;99.90;;;;;;5058207;28;20224;-81
2023/08/16 07:15:28;;;;;;;5.63;1.80;;;17.90;99.90;;;;;;5059290;28;20242;-82
2023/08/16 07:17:54;;;;;;;7.07;1.90;;;18.00;99.90;;;;;;5055561;28;20718;-80
2023/08/16 07:20:21;;;;;;;3.67;1.50;;;18.10;99.90;;;;;;5055240;28;20287;-81
2023/08/16 07:22:48;;;;;;;4.30;1.40;;;18.20;99.90;;;;;;5053690;28;20785;-82
2023/08/16 07:25:14;;;;;;;6.18;2.00;;;18.20;99.90;;;;;;5058018;28;20766;-81
2023/08/16 07:27:42;;;;;;;4.25;1.60;;;18.30;99.90;;;;;;5056562;28;20303;-81
2023/08/16 07:30:10;;;;;;;3.80;1.40;;;18.30;99.90;;;;;;5063714;28;20251;-81
2023/08/16 07:32:36;;;;;;;6.43;1.48;;;18.40;99.90;;;;;;5055540;28;20303;-82
2023/08/16 07:35:03;;;;;;;5.65;1.70;;;18.60;99.90;;;;;;5061358;28;20215;-81
2023/08/16 07:37:32;;;;;;;3.80;1.95;;;18.90;99.90;;;;;;5054937;28;20285;-81
2023/08/16 07:39:59;;;;;;;4.90;1.63;;;19.20;99.90;;;;;;5057746;28;20227;-81
2023/08/16 07:42:26;;;;;;;4.63;1.40;;;19.40;99.90;;;;;;5054330;28;20230;-81
2023/08/16 07:44:54;;;;;;;2.80;1.52;;;19.60;99.90;;;;;;5058734;28;20227;-81
2023/08/16 07:47:21;;;;;;;3.65;1.30;;;19.70;99.90;;;;;;5049331;28;20220;-83
2023/08/16 07:49:48;;;;;;;5.65;1.80;;;19.80;99.90;;;;;;5054302;28;20611;-81
2023/08/16 07:52:14;;;;;;;5.70;1.50;;;19.90;99.90;;;;;;5044849;28;20298;-81
2023/08/16 07:54:41;;;;;;;6.13;1.65;;;20.00;99.90;;;;;;5066927;28;20220;-80
2023/08/16 07:57:08;;;;;;;3.47;1.20;;;20.10;99.90;;;;;;5048784;28;20231;-81
2023/08/16 07:59:35;;;;;;;3.38;1.20;;;20.50;99.90;;;;;;5058323;28;20231;-81
2023/08/16 08:02:05;;;;;;;5.15;1.40;;;20.90;99.90;;;;;;5056238;28;20216;-81
2023/08/16 08:04:32;;;;;;;3.80;1.55;;;21.40;99.90;;;;;;5056611;28;20989;-81
2023/08/16 08:06:59;;;;;;;5.47;1.40;;;21.80;99.90;;;;;;5062947;28;20216;-81
2023/08/16 08:09:26;;;;;;;4.03;1.50;;;22.30;99.90;;;;;;5057318;28;20228;-83
2023/08/16 08:11:53;;;;;;;3.38;1.35;;;22.60;99.90;;;;;;5057633;28;20283;-81
2023/08/16 08:14:20;;;;;;;3.40;1.85;;;22.90;99.90;;;;;;5062249;28;20220;-81
2023/08/16 08:16:46;;;;;;;3.85;1.40;;;23.20;99.90;;;;;;5049704;28;20231;-82
2023/08/16 08:19:14;;;;;;;2.80;1.50;;;23.50;99.90;;;;;;5058021;28;20223;-81
2023/08/16 08:21:41;;;;;;;2.90;1.63;;;23.80;99.90;;;;;;5060708;28;20222;-81
2023/08/16 08:24:08;;;;;;;3.42;1.65;;;24.10;99.90;;;;;;5055696;28;20212;-81
2023/08/16 08:26:35;;;;;;;2.45;1.20;;;24.40;99.90;;;;;;5053840;28;20236;-82
2023/08/16 08:29:02;;;;;;;3.42;1.10;;;24.60;99.90;;;;;;5051366;28;20281;-81
2023/08/16 08:31:29;;;;;;;4.65;1.27;;;24.90;99.90;;;;;;5063983;28;20318;-82
2023/08/16 08:33:56;;;;;;;4.55;1.38;;;25.20;99.90;;;;;;5054502;28;20669;-81
2023/08/16 08:36:24;;;;;;;6.60;1.50;;;25.50;99.90;;;;;;5061494;28;20990;-81
2023/08/16 08:38:51;;;;;;;3.20;1.70;;;25.80;98.00;;;;;;5055798;28;20707;-81
2023/08/16 08:41:21;;;;;;;2.65;1.30;;;26.10;99.10;;;;;;5054614;28;20227;-84
2023/08/16 08:43:49;;;;;;;3.88;1.65;;;26.50;98.70;;;;;;5052110;28;20238;-81
2023/08/16 08:46:16;;;;;;;3.80;1.50;;;26.80;98.10;;;;;;5048876;28;20220;-83
2023/08/16 08:48:44;;;;;;;3.08;1.35;;;27.00;97.80;;;;;;5050507;28;20231;-81
2023/08/16 08:51:11;;;;;;;2.65;1.25;;;27.00;97.50;;;;;;5062830;28;20227;-82
2023/08/16 08:53:39;;;;;;;3.80;1.35;;;27.00;97.30;;;;;;5061193;28;20227;-82
2023/08/16 08:56:09;;;;;;;3.70;1.20;;;26.90;96.90;;;;;;5063179;28;20219;-82
2023/08/16 08:58:39;;;;;;;5.53;1.70;;;26.80;96.50;;;;;;5056429;28;20230;-82
2023/08/16 09:01:07;;;;;;;2.70;1.25;;;26.70;96.70;;;;;;5055872;28;20697;-82
2023/08/16 09:03:35;;;;;;;5.13;1.27;;;26.60;96.90;;;;;;5052568;28;20220;-81
2023/08/16 09:06:05;;;;;;;4.75;1.35;;;26.60;96.70;;;;;;5063777;28;20228;-82
2023/08/16 09:08:34;;;;;;;4.55;1.50;;;26.60;96.70;;;;;;5057257;28;20234;-82
2023/08/16 09:11:03;;;;;;;4.22;1.30;;;26.70;96.40;;;;;;5060514;28;20739;-81
2023/08/16 09:13:31;;;;;;;6.00;1.38;;;26.80;95.70;;;;;;5048127;28;20226;-82
2023/08/16 09:16:00;;;;;;;3.78;1.27;;;26.90;95.70;;;;;;5059169;28;20220;-82
2023/08/16 09:18:28;;;;;;;2.10;1.05;;;26.90;95.60;;;;;;5050107;28;20229;-81
2023/08/16 09:20:58;;;;;;;3.15;1.23;;;26.90;95.90;;;;;;5056825;28;20301;-82
2023/08/16 09:23:25;;;;;;;3.40;1.25;;;27.10;96.00;;;;;;5059163;28;20224;-82
2023/08/16 09:25:52;;;;;;;2.65;1.10;;;27.30;95.80;;;;;;5046716;28;20224;-82
2023/08/16 09:28:20;;;;;;;4.75;1.40;;;27.70;95.50;;;;;;5056521;28;20223;-82
2023/08/16 09:30:47;;;;;;;3.75;1.50;;;28.10;94.70;;;;;;5057754;28;20235;-82
2023/08/16 09:33:15;;;;;;;2.33;1.20;;;28.50;93.70;;;;;;5055893;28;20314;-81
2023/08/16 09:35:48;;;;;;;3.45;1.00;;;29.00;93.90;;;;;;5059145;28;20319;-82
2023/08/16 09:38:16;;;;;;;4.28;1.17;;;29.40;91.90;;;;;;5058122;28;20230;-82
2023/08/16 09:40:49;;;;;;;4.53;1.20;;;29.90;91.90;;;;;;5057537;28;20227;-82
2023/08/16 09:43:16;;;;;;;5.78;1.45;;;30.30;90.40;;;;;;5058077;28;20219;-82
2023/08/16 09:45:47;;;;;;;3.15;1.10;;;30.70;90.50;;;;;;5055434;28;21133;-82
2023/08/16 09:48:14;;;;;;;3.17;1.00;;;31.10;87.60;;;;;;5045875;28;20220;-83
2023/08/16 09:50:41;;;;;;;1.50;1.23;;;31.40;87.50;;;;;;5049916;28;20221;-82
2023/08/16 09:53:07;;;;;;;3.80;1.10;;;31.80;85.40;;;;;;5061524;28;20226;-82
2023/08/16 09:55:35;;;;;;;3.97;1.48;;;32.10;83.90;;;;;;5060549;28;20235;-82
2023/08/16 09:58:04;;;;;;;3.15;1.50;;;32.40;81.70;;;;;;5054513;28;20755;-82
2023/08/16 10:00:32;;;;;;;2.78;1.10;;;32.60;80.50;;;;;;5056644;28;20246;-82
2023/08/16 10:03:01;;;;;;;5.00;1.27;;;32.80;79.40;;;;;;5061272;28;20710;-82
2023/08/16 10:05:28;;;;;;;3.90;1.35;;;32.90;77.70;;;;;;5051852;28;20230;-82
2023/08/16 10:07:59;;;;;;;4.38;2.20;;;33.00;76.70;;;;;;5052818;28;20613;-82
2023/08/16 10:10:26;;;;;;;1.38;1.20;;;33.10;76.10;;;;;;5052590;28;20231;-82
2023/08/16 10:12:55;;;;;;;3.17;1.30;;;33.20;74.80;;;;;;5054231;28;20259;-82
2023/08/16 10:15:22;;;;;;;3.88;1.10;;;33.30;73.20;;;;;;5050759;28;20235;-82
2023/08/16 10:17:53;;;;;;;2.08;0.93;;;33.40;73.50;;;;;;5074325;28;20744;-84
2023/08/16 10:20:24;;;;;;;2.08;1.10;;;33.50;72.00;;;;;;5048798;28;20231;-82
2023/08/16 10:22:58;;;;;;;2.75;1.05;;;33.60;69.60;;;;;;5052140;28;20282;-83
2023/08/16 10:25:25;;;;;;;2.47;1.02;;;33.70;70.10;;;;;;5065558;28;20234;-84
2023/08/16 10:27:55;;;;;;;3.22;1.17;;;33.80;70.80;;;;;;5057069;28;20380;-84
2023/08/16 10:30:23;;;;;;;3.22;1.20;;;33.90;68.90;;;;;;5052609;28;20225;-82
2023/08/16 10:32:55;;;;;;;5.43;1.13;;;34.00;69.00;;;;;;5072803;28;20539;-82
2023/08/16 10:35:24;;;;;;;3.85;1.15;;;34.10;67.00;;;;;;5058673;28;20228;-82
2023/08/16 10:37:53;;;;;;;3.65;1.23;;;34.10;67.70;;;;;;5059542;28;20228;-82
2023/08/16 10:40:21;;;;;;;2.47;1.20;;;34.10;66.80;;;;;;5054166;28;20814;-82
2023/08/16 10:42:57;;;;;;;2.70;1.30;;;34.10;66.50;;;;;;5055659;28;20243;-82
2023/08/16 10:45:28;;;;;;;6.43;1.77;;;34.10;66.30;;;;;;5047756;28;20239;-82
2023/08/16 10:47:55;;;;;;;2.55;1.25;;;34.10;65.60;;;;;;5060323;28;20611;-82
2023/08/16 10:50:34;;;;;;;1.77;1.02;;;34.10;66.90;;;;;;5051717;28;20222;-82
2023/08/16 10:53:01;;;;;;;3.25;1.10;;;34.00;65.20;;;;;;5059334;28;20230;-82
2023/08/16 10:55:28;;;;;;;5.28;1.10;;;34.00;65.50;;;;;;5051963;28;20232;-83
2023/08/16 10:57:55;;;;;;;2.55;1.15;;;33.90;65.00;;;;;;5056268;28;20291;-82
2023/08/16 11:00:32;;;;;;;2.38;1.25;;;33.90;65.00;;;;;;5053979;28;20224;-82
2023/08/16 11:03:00;;;;;;;2.50;1.05;;;33.90;63.30;;;;;;5060554;28;20593;-82
2023/08/16 11:05:29;;;;;;;4.30;1.15;;;34.00;63.10;;;;;;5055666;28;20722;-83
2023/08/16 11:07:59;;;;;;;5.03;3.10;;;34.00;63.50;;;;;;5055293;28;20306;-81
2023/08/16 11:10:33;;;;;;;2.13;1.35;;;34.00;62.10;;;;;;5064466;28;20311;-81
2023/08/16 11:13:01;;;;;;;9.80;5.68;;;34.10;62.10;;;;;;5059225;28;20323;-81
2023/08/16 11:15:28;;;;;;;4.20;2.03;;;34.10;62.30;;;;;;5060305;28;20230;-80
2023/08/16 11:17:55;;;;;;;2.05;1.40;;;34.10;61.50;;;;;;5056388;28;20226;-81
2023/08/16 11:20:24;;;;;;;2.63;1.23;;;34.10;60.40;;;;;;5057974;28;20227;-82
2023/08/16 11:22:52;;;;;;;3.03;1.00;;;34.10;60.00;;;;;;5056612;28;20230;-81
2023/08/16 11:25:20;;;;;;;3.33;0.98;;;34.00;59.70;;;;;;5048878;28;20227;-81
2023/08/16 11:27:47;;;;;;;2.75;1.15;;;34.00;59.40;;;;;;5057068;28;20223;-83
2023/08/16 11:30:14;;;;;;;3.20;1.60;;;34.00;60.00;;;;;;5074275;28;20211;-82
2023/08/16 11:32:41;;;;;;;3.85;1.17;;;34.00;59.30;;;;;;5061626;28;20230;-81
2023/08/16 11:35:09;;;;;;;3.30;1.17;;;34.00;59.20;;;;;;5057247;28;20741;-82
2023/08/16 11:37:37;;;;;;;1.60;1.00;;;34.10;59.50;;;;;;5058495;28;20774;-82
2023/08/16 11:40:05;;;;;;;2.80;1.08;;;34.00;59.20;;;;;;5057176;28;20228;-82
2023/08/16 11:42:33;;;;;;;1.80;1.27;;;33.90;58.20;;;;;;5056887;28;20231;-81
2023/08/16 11:45:00;;;;;;;2.00;1.10;;;33.80;58.30;;;;;;5052066;28;20589;-81
2023/08/16 11:47:26;;;;;;;2.85;1.48;;;33.70;58.50;;;;;;5051377;28;20234;-82
2023/08/16 11:49:53;;;;;;;3.25;1.10;;;33.40;57.70;;;;;;5050955;28;20847;-81
2023/08/16 11:52:21;;;;;;;5.93;1.40;;;33.20;58.30;;;;;;5063360;28;20741;-81
2023/08/16 11:54:48;;;;;;;2.47;1.13;;;33.00;58.90;;;;;;5058577;28;20215;-82
2023/08/16 11:57:18;;;;;;;2.33;1.30;;;32.70;59.00;;;;;;5047637;28;20238;-82
2023/08/16 11:59:55;;;;;;;2.92;1.08;;;32.50;58.40;;;;;;5049520;28;20297;-81
2023/08/16 12:02:22;;;;;;;4.00;1.30;;;32.10;59.20;;;;;;5049925;28;20593;-81
2023/08/16 12:04:49;;;;;;;4.05;1.30;;;31.90;59.70;;;;;;5068937;28;20220;-82
2023/08/16 12:07:16;;;;;;;2.58;1.00;;;31.80;60.70;;;;;;5057315;28;20234;-81
2023/08/16 12:09:43;;;;;;;3.28;1.40;;;31.70;60.20;;;;;;5057068;28;20223;-81
2023/08/16 12:12:11;;;;;;;3.40;1.15;;;31.70;60.40;;;;;;5055982;28;20215;-83
2023/08/16 12:14:37;;;;;;;2.90;1.45;;;31.80;60.10;;;;;;5058922;28;20289;-81
2023/08/16 12:17:05;;;;;;;2.20;1.10;;;31.80;60.40;;;;;;5074915;28;20215;-82
2023/08/16 12:19:32;;;;;;;2.60;1.25;;;31.90;61.10;;;;;;5056712;28;20481;-81
2023/08/16 12:21:59;;;;;;;3.47;1.25;;;31.90;61.30;;;;;;5053155;28;20219;-81
2023/08/16 12:24:26;;;;;;;2.25;1.05;;;31.90;60.80;;;;;;5057097;28;20219;-81
2023/08/16 12:26:52;;;;;;;3.22;1.15;;;31.90;61.10;;;;;;5050770;28;20227;-82
2023/08/16 12:29:19;;;;;;;3.17;1.20;;;31.90;60.90;;;;;;5051076;28;20219;-81
2023/08/16 12:31:46;;;;;;;2.55;1.13;;;32.00;60.20;;;;;;5052944;28;20234;-80
2023/08/16 12:34:14;;;;;;;2.03;1.10;;;32.00;60.00;;;;;;5058771;28;20226;-81
2023/08/16 12:36:40;;;;;;;3.05;1.10;;;32.00;60.00;;;;;;5052780;28;20254;-81
2023/08/16 12:39:07;;;;;;;2.25;1.20;;;32.10;59.70;;;;;;5052584;28;20310;-84
2023/08/16 12:41:34;;;;;;;2.47;1.10;;;32.10;60.00;;;;;;5054688;28;20302;-81
2023/08/16 12:44:03;;;;;;;3.15;1.30;;;32.20;60.00;;;;;;5053987;28;20250;-81
2023/08/16 12:46:30;;;;;;;2.63;1.25;;;32.30;59.50;;;;;;5048701;28;20235;-81